createdAt,value
2023-01-18T00:02:11.286Z,96860.34
2023-01-18T00:04:49.218Z,96874.13
2023-01-18T00:07:26.780Z,96863.81
2023-01-18T00:10:09.526Z,96884.44
2023-01-18T00:12:55.186Z,96881.81
2023-01-18T00:15:42.202Z,96882.16
2023-01-18T00:18:34.895Z,96869.53
2023-01-18T00:21:19.059Z,96853.25
2023-01-18T00:24:04.548Z,96846.09
2023-01-18T00:26:59.716Z,96817.25
2023-01-18T00:29:36.219Z,96811.06
2023-01-18T00:32:14.332Z,96810.56
2023-01-18T00:35:03.576Z,96804.59
2023-01-18T00:37:45.972Z,96800.22
2023-01-18T00:40:29.014Z,96822.69
2023-01-18T00:43:23.041Z,96853.06
2023-01-18T00:46:03.968Z,96856.53
2023-01-18T00:48:35.859Z,96877.06
2023-01-18T00:51:18.843Z,96897.75
2023-01-18T00:54:10.066Z,96943.41
2023-01-18T00:56:51.244Z,96966.25
2023-01-18T00:59:31.772Z,96966.56
2023-01-18T01:02:07.168Z,96982.78
2023-01-18T01:04:55.719Z,96980.06
2023-01-18T01:07:28.617Z,96977.97
2023-01-18T01:09:58.956Z,96977.25
2023-01-18T01:12:52.572Z,96978.28
2023-01-18T01:15:43.772Z,96966.34
2023-01-18T01:18:38.769Z,96968.06
2023-01-18T01:21:29.708Z,96970.13
2023-01-18T01:24:21.012Z,96954.34
2023-01-18T01:26:56.871Z,96939.66
2023-01-18T01:32:15.572Z,96933.22
2023-01-18T01:34:49.462Z,96942.69
2023-01-18T01:37:21.518Z,96925.84
2023-01-18T01:40:00.588Z,96921.78
2023-01-18T01:42:41.238Z,96934.03
2023-01-18T01:45:19.108Z,96933.06
2023-01-18T01:47:55.985Z,96946.84
2023-01-18T01:50:34.076Z,96947.31
2023-01-18T01:53:16.687Z,96953.16
2023-01-18T01:56:05.047Z,96970.63
2023-01-18T01:58:41.848Z,96977.25
2023-01-18T02:01:23.164Z,96971.13
2023-01-18T02:04:21.494Z,96976.44
2023-01-18T02:06:57.982Z,96969.50
2023-01-18T02:09:39.455Z,96969.25
2023-01-18T02:12:14.841Z,96958.16
2023-01-18T02:14:53.576Z,96957.88
2023-01-18T02:18:03.711Z,96969.19
2023-01-18T02:20:55.554Z,96969.44
2023-01-18T02:23:53.685Z,96982.06
2023-01-18T02:27:03.328Z,96998.47
2023-01-18T02:29:59.751Z,97013.19
2023-01-18T02:32:58.436Z,97014.81
2023-01-18T02:35:40.105Z,97006.91
2023-01-18T02:38:26.938Z,97017.00
2023-01-18T02:41:21.252Z,97012.34
2023-01-18T02:44:17.987Z,97017.59
2023-01-18T02:47:09.405Z,97021.88
2023-01-18T02:49:41.438Z,97014.53
2023-01-18T02:52:49.776Z,97015.19
2023-01-18T02:55:44.165Z,97014.06
2023-01-18T02:58:34.618Z,97014.53
2023-01-18T03:01:27.053Z,97002.88
2023-01-18T03:04:09.767Z,97003.47
2023-01-18T03:06:50.287Z,97015.34
2023-01-18T03:09:34.530Z,97021.09
2023-01-18T03:12:46.787Z,97020.97
2023-01-18T03:15:57.557Z,97003.34
2023-01-18T03:19:00.845Z,97002.59
2023-01-18T03:21:53.917Z,97001.91
2023-01-18T03:24:32.439Z,97011.69
2023-01-18T03:27:21.610Z,97012.75
2023-01-18T03:30:15.968Z,97006.66
2023-01-18T03:33:07.270Z,97002.44
2023-01-18T03:35:48.963Z,96995.28
2023-01-18T03:38:35.741Z,96986.69
2023-01-18T03:41:10.588Z,96993.34
2023-01-18T03:43:48.673Z,96987.84
2023-01-18T03:46:30.855Z,96998.84
2023-01-18T03:49:06.590Z,96978.75
2023-01-18T03:51:59.745Z,96977.03
2023-01-18T03:55:10.368Z,96966.13
2023-01-18T03:57:50.361Z,96967.25
2023-01-18T04:00:28.714Z,96963.50
2023-01-18T04:03:06.498Z,96953.91
2023-01-18T04:05:45.889Z,96968.72
2023-01-18T04:08:22.738Z,96964.91
2023-01-18T04:11:02.093Z,96976.97
2023-01-18T04:13:39.757Z,96982.59
2023-01-18T04:16:16.933Z,96973.44
2023-01-18T04:18:49.029Z,96983.97
2023-01-18T04:21:24.118Z,96991.53
2023-01-18T04:23:56.920Z,96996.91
2023-01-18T04:26:34.563Z,96989.63
2023-01-18T04:29:17.886Z,96997.41
2023-01-18T04:31:56.045Z,97003.91
2023-01-18T04:34:31.792Z,97000.25
2023-01-18T04:37:04.521Z,96995.81
2023-01-18T04:39:49.929Z,96980.50
2023-01-18T04:42:33.861Z,96971.13
2023-01-18T04:45:23.116Z,96976.59
2023-01-18T04:48:09.270Z,96983.06
2023-01-18T04:50:53.021Z,96985.50
2023-01-18T04:53:31.460Z,96990.34
2023-01-18T04:56:20.722Z,96983.88
2023-01-18T04:58:58.327Z,97006.19
2023-01-18T05:01:30.998Z,97018.75
2023-01-18T05:04:12.262Z,97007.72
2023-01-18T05:06:53.391Z,97002.66
2023-01-18T05:09:38.890Z,97020.13
2023-01-18T05:12:22.037Z,97013.34
2023-01-18T05:15:02.834Z,96998.78
2023-01-18T05:17:43.345Z,96995.59
2023-01-18T05:20:21.673Z,97000.72
2023-01-18T05:23:02.079Z,96994.38
2023-01-18T05:25:53.913Z,97031.22
2023-01-18T05:28:32.926Z,97027.44
2023-01-18T05:31:16.217Z,97065.97
2023-01-18T05:34:02.304Z,97081.59
2023-01-18T05:36:40.746Z,97082.56
2023-01-18T05:39:23.121Z,97089.59
2023-01-18T05:42:03.879Z,97100.88
2023-01-18T05:44:44.051Z,97084.13
2023-01-18T05:47:30.767Z,97083.13
2023-01-18T05:50:10.940Z,97106.41
2023-01-18T05:52:48.369Z,97102.53
2023-01-18T05:55:25.468Z,97086.50
2023-01-18T05:58:04.103Z,97074.75
2023-01-18T06:00:42.156Z,97077.09
2023-01-18T06:03:26.794Z,97083.09
2023-01-18T06:06:12.059Z,97095.78
2023-01-18T06:08:50.683Z,97082.97
2023-01-18T06:11:35.342Z,97074.38
2023-01-18T06:14:12.831Z,97068.00
2023-01-18T06:16:58.599Z,97060.50
2023-01-18T06:19:39.525Z,97039.22
2023-01-18T06:22:18.151Z,97048.53
2023-01-18T06:24:53.323Z,97062.28
2023-01-18T06:27:41.961Z,97080.25
2023-01-18T06:30:22.727Z,97090.88
2023-01-18T06:33:04.912Z,97099.63
2023-01-18T06:35:46.749Z,97085.53
2023-01-18T06:38:30.721Z,97075.41
2023-01-18T06:41:09.701Z,97082.63
2023-01-18T06:43:52.637Z,97083.44
2023-01-18T06:46:32.901Z,97090.03
2023-01-18T06:49:16.444Z,97091.13
2023-01-18T06:51:54.804Z,97090.47
2023-01-18T06:54:34.533Z,97076.44
2023-01-18T06:57:32.012Z,97040.94
2023-01-18T07:00:18.478Z,96988.31
2023-01-18T07:03:01.497Z,97034.13
2023-01-18T07:05:45.510Z,97052.25
2023-01-18T07:08:24.117Z,97053.69
2023-01-18T07:11:04.304Z,97094.69
2023-01-18T07:13:52.490Z,97105.06
2023-01-18T07:16:32.696Z,97111.66
2023-01-18T07:19:21.157Z,97104.94
2023-01-18T07:22:04.928Z,97128.75
2023-01-18T07:24:46.353Z,97133.06
2023-01-18T07:27:27.747Z,97124.06
2023-01-18T07:30:11.190Z,97131.63
2023-01-18T07:32:59.357Z,97162.03
2023-01-18T07:35:37.886Z,97175.75
2023-01-18T07:38:24.151Z,97199.47
2023-01-18T07:41:05.029Z,97199.16
2023-01-18T07:43:45.737Z,97190.06
2023-01-18T07:46:20.879Z,97200.44
2023-01-18T07:48:53.893Z,97198.72
2023-01-18T07:51:35.152Z,97215.47
2023-01-18T07:54:21.884Z,97250.44
2023-01-18T07:57:00.746Z,97278.25
2023-01-18T07:59:42.184Z,97268.16
2023-01-18T08:02:28.978Z,97269.72
2023-01-18T08:05:10.904Z,97261.09
2023-01-18T08:07:47.451Z,97251.72
2023-01-18T08:10:30.703Z,97251.19
2023-01-18T08:13:17.427Z,97251.41
2023-01-18T08:15:58.994Z,97259.59
2023-01-18T08:18:37.706Z,97262.31
2023-01-18T08:21:18.998Z,97274.53
2023-01-18T08:24:03.199Z,97280.56
2023-01-18T08:26:44.056Z,97280.97
2023-01-18T08:29:18.829Z,97289.91
2023-01-18T08:32:07.562Z,97310.84
2023-01-18T08:34:45.647Z,97322.59
2023-01-18T08:37:28.968Z,97324.75
2023-01-18T08:40:07.176Z,97323.53
2023-01-18T08:42:52.715Z,97335.72
2023-01-18T08:45:35.057Z,97348.56
2023-01-18T08:48:10.916Z,97371.00
2023-01-18T08:50:51.854Z,97375.50
2023-01-18T08:53:35.110Z,97382.94
2023-01-18T08:56:21.785Z,97375.31
2023-01-18T08:59:02.644Z,97375.41
2023-01-18T09:01:42.871Z,97388.63
2023-01-18T09:04:15.738Z,97396.09
2023-01-18T09:06:57.012Z,97396.50
2023-01-18T09:09:32.075Z,97391.75
2023-01-18T09:12:07.909Z,97404.66
2023-01-18T09:14:48.682Z,97413.13
2023-01-18T09:17:27.125Z,97419.88
2023-01-18T09:20:09.722Z,97418.38
2023-01-18T09:22:47.998Z,97425.97
2023-01-18T09:25:28.690Z,97417.19
2023-01-18T09:28:03.698Z,97421.84
2023-01-18T09:30:41.855Z,97431.47
2023-01-18T09:33:20.467Z,97449.38
2023-01-18T09:36:02.085Z,97464.44
2023-01-18T09:38:40.301Z,97484.28
2023-01-18T09:41:27.873Z,97498.94
2023-01-18T09:44:16.040Z,97523.19
2023-01-18T09:47:01.261Z,97532.00
2023-01-18T09:49:52.244Z,97538.88
2023-01-18T09:52:51.719Z,97550.63
2023-01-18T09:55:45.415Z,97550.50
2023-01-18T09:58:47.366Z,97569.22
2023-01-18T10:01:26.221Z,97574.66
2023-01-18T10:04:15.323Z,97573.28
2023-01-18T10:07:05.106Z,97569.31
2023-01-18T10:09:56.028Z,97574.56
2023-01-18T10:12:46.977Z,97588.13
2023-01-18T10:15:49.326Z,97582.69
2023-01-18T10:18:22.984Z,97596.66
2023-01-18T10:21:22.014Z,97607.69
2023-01-18T10:24:42.185Z,97595.25
2023-01-18T10:27:55.338Z,97600.38
2023-01-18T10:30:50.685Z,97616.41
2023-01-18T10:33:29.025Z,97615.47
2023-01-18T10:36:11.777Z,97622.94
2023-01-18T10:38:44.997Z,97632.34
2023-01-18T10:41:35.483Z,97636.19
2023-01-18T10:44:18.736Z,97644.44
2023-01-18T10:47:02.944Z,97649.19
2023-01-18T10:49:51.463Z,97642.09
2023-01-18T10:52:35.697Z,97639.44
2023-01-18T10:55:16.067Z,97640.72
2023-01-18T10:58:02.369Z,97651.50
2023-01-18T11:00:43.039Z,97651.44
2023-01-18T11:03:22.729Z,97662.03
2023-01-18T11:06:03.526Z,97648.81
2023-01-18T11:08:45.322Z,97642.84
2023-01-18T11:11:45.416Z,97663.00
2023-01-18T11:14:39.788Z,97664.41
2023-01-18T11:17:17.436Z,97666.72
2023-01-18T11:20:19.189Z,97675.41
2023-01-18T11:23:21.701Z,97675.81
2023-01-18T11:26:19.549Z,97678.34
2023-01-18T11:29:07.018Z,97695.25
2023-01-18T11:32:05.965Z,97707.28
2023-01-18T11:34:49.086Z,97716.41
2023-01-18T11:37:40.069Z,97722.47
2023-01-18T11:41:07.948Z,97741.09
2023-01-18T11:43:49.618Z,97751.25
2023-01-18T11:46:28.480Z,97762.13
2023-01-18T11:49:25.317Z,97762.59
2023-01-18T11:52:12.784Z,97770.88
2023-01-18T11:54:57.492Z,97767.94
2023-01-18T11:57:35.227Z,97779.81
2023-01-18T12:00:19.030Z,97780.88
2023-01-18T12:03:27.293Z,97786.66
2023-01-18T12:06:46.822Z,97792.16
2023-01-18T12:09:30.713Z,97787.63
2023-01-18T12:12:19.285Z,97809.38
2023-01-18T12:15:32.661Z,97823.69
2023-01-18T12:18:34.826Z,97828.66
2023-01-18T12:21:14.549Z,97836.53
2023-01-18T12:24:12.421Z,97842.38
2023-01-18T12:27:00.440Z,97841.91
2023-01-18T12:29:59.911Z,97849.50
2023-01-18T12:32:51.954Z,97852.66
2023-01-18T12:35:53.313Z,97856.91
2023-01-18T12:38:35.097Z,97860.19
2023-01-18T12:41:58.573Z,97859.44
2023-01-18T12:44:47.916Z,97863.19
2023-01-18T12:47:55.702Z,97861.16
2023-01-18T12:50:36.816Z,97866.09
2023-01-18T12:53:35.617Z,97881.50
2023-01-18T12:56:20.260Z,97878.72
2023-01-18T12:59:00.459Z,97885.06
2023-01-18T13:01:40.090Z,97882.88
2023-01-18T13:04:30.247Z,97880.56
2023-01-18T13:07:14.677Z,97890.75
2023-01-18T13:10:04.945Z,97902.50
2023-01-18T13:12:40.666Z,97913.47
2023-01-18T13:15:29.928Z,97923.44
2023-01-18T13:18:23.854Z,97930.34
2023-01-18T13:21:10.586Z,97937.53
2023-01-18T13:24:03.753Z,97943.72
2023-01-18T13:26:40.412Z,97947.94
2023-01-18T13:29:25.851Z,97955.34
2023-01-18T13:32:02.665Z,97974.88
2023-01-18T13:34:47.962Z,97964.28
2023-01-18T13:37:42.903Z,97974.94
2023-01-18T13:40:38.078Z,97982.53
2023-01-18T13:43:37.935Z,97985.63
2023-01-18T13:46:30.441Z,97988.22
2023-01-18T13:49:43.741Z,97987.81
2023-01-18T13:52:31.528Z,97993.97
2023-01-18T13:55:09.326Z,98000.06
2023-01-18T13:58:04.301Z,98011.59
2023-01-18T14:00:38.883Z,98013.16
2023-01-18T14:03:31.422Z,98010.00
2023-01-18T14:06:17.760Z,98022.72
2023-01-18T14:09:09.584Z,98014.06
2023-01-18T14:11:45.991Z,98002.06
2023-01-18T14:14:35.751Z,98001.03
2023-01-18T14:17:25.470Z,98005.50
2023-01-18T14:20:46.713Z,97998.75
2023-01-18T14:23:49.337Z,98018.13
2023-01-18T14:26:22.532Z,98030.47
2023-01-18T14:29:24.284Z,98034.69
2023-01-18T14:32:09.257Z,98046.00
2023-01-18T14:34:45.752Z,98041.94
2023-01-18T14:37:34.929Z,98047.88
2023-01-18T14:40:23.244Z,98048.91
2023-01-18T14:43:03.648Z,98054.41
2023-01-18T14:45:40.988Z,98058.59
2023-01-18T14:48:27.506Z,98061.38
2023-01-18T14:51:12.675Z,98051.25
2023-01-18T14:53:54.667Z,98066.41
2023-01-18T14:56:41.562Z,98080.53
2023-01-18T14:59:22.905Z,98078.09
2023-01-18T15:02:02.737Z,98087.38
2023-01-18T15:04:39.030Z,98087.00
2023-01-18T15:07:15.998Z,98081.25
2023-01-18T15:09:51.088Z,98077.25
2023-01-18T15:12:34.439Z,98063.47
2023-01-18T15:15:25.168Z,98054.38
2023-01-18T15:18:14.379Z,98057.75
2023-01-18T15:21:08.253Z,98062.69
2023-01-18T15:23:42.995Z,98063.97
2023-01-18T15:26:35.765Z,98071.00
2023-01-18T15:29:23.906Z,98067.44
2023-01-18T15:31:59.752Z,98072.41
2023-01-18T15:34:39.376Z,98061.78
2023-01-18T15:37:16.750Z,98055.47
2023-01-18T15:39:50.594Z,98047.06
2023-01-18T15:42:27.419Z,98046.94
2023-01-18T15:45:02.155Z,98046.13
2023-01-18T15:47:40.568Z,98071.06
2023-01-18T15:50:21.658Z,98077.50
2023-01-18T15:53:11.675Z,98081.69
2023-01-18T15:55:56.721Z,98088.44
2023-01-18T15:58:41.458Z,98104.03
2023-01-18T16:01:37.715Z,98113.97
2023-01-18T16:04:31.016Z,98136.25
2023-01-18T16:07:36.167Z,98137.16
2023-01-18T16:10:33.264Z,98120.16
2023-01-18T16:13:34.042Z,98124.06
2023-01-18T16:16:16.168Z,98128.41
2023-01-18T16:18:54.757Z,98133.72
2023-01-18T16:21:50.155Z,98146.03
2023-01-18T16:24:28.530Z,98158.13
2023-01-18T16:27:28.202Z,98162.22
2023-01-18T16:30:05.635Z,98162.63
2023-01-18T16:32:42.642Z,98170.47
2023-01-18T16:35:18.228Z,98169.00
2023-01-18T16:37:53.965Z,98172.88
2023-01-18T16:40:30.206Z,98166.66
2023-01-18T16:43:28.971Z,98157.19
2023-01-18T16:46:04.715Z,98157.53
2023-01-18T16:48:41.569Z,98155.03
2023-01-18T16:51:26.105Z,98149.41
2023-01-18T16:53:59.356Z,98158.63
2023-01-18T16:56:39.940Z,98147.50
2023-01-18T16:59:27.633Z,98137.16
2023-01-18T17:02:03.534Z,98144.53
2023-01-18T17:04:42.695Z,98161.34
2023-01-18T17:07:26.735Z,98169.94
2023-01-18T17:10:01.883Z,98157.19
2023-01-18T17:12:39.135Z,98160.63
2023-01-18T17:15:15.892Z,98160.03
2023-01-18T17:17:46.087Z,98164.47
2023-01-18T17:20:31.502Z,98162.91
2023-01-18T17:23:06.781Z,98153.47
2023-01-18T17:25:45.427Z,98157.13
2023-01-18T17:28:27.753Z,98159.16
2023-01-18T17:31:00.854Z,98167.81
2023-01-18T17:33:36.221Z,98172.31
2023-01-18T17:36:11.054Z,98169.19
2023-01-18T17:38:52.089Z,98183.78
2023-01-18T17:41:27.774Z,98211.44
2023-01-18T17:44:08.458Z,98196.47
2023-01-18T17:46:43.463Z,98214.56
2023-01-18T17:49:21.825Z,98232.75
2023-01-18T17:51:56.739Z,98253.34
2023-01-18T17:54:35.061Z,98225.09
2023-01-18T17:57:09.139Z,98216.47
2023-01-18T17:59:48.717Z,98240.78
2023-01-18T18:02:24.484Z,98248.97
2023-01-18T18:04:57.164Z,98260.47
2023-01-18T18:07:35.867Z,98279.59
2023-01-18T18:10:09.082Z,98273.84
2023-01-18T18:12:39.277Z,98264.63
2023-01-18T18:15:11.735Z,98265.88
2023-01-18T18:17:49.709Z,98265.22
2023-01-18T18:20:23.583Z,98267.91
2023-01-18T18:23:01.984Z,98259.22
2023-01-18T18:25:39.214Z,98275.75
2023-01-18T18:28:14.689Z,98278.75
2023-01-18T18:30:54.772Z,98268.38
2023-01-18T18:33:24.727Z,98266.47
2023-01-18T18:36:00.244Z,98265.88
2023-01-18T18:38:38.212Z,98262.53
2023-01-18T18:41:15.623Z,98257.16
2023-01-18T18:43:53.696Z,98254.69
2023-01-18T18:46:31.214Z,98263.31
2023-01-18T18:49:06.485Z,98264.97
2023-01-18T18:51:41.613Z,98271.50
2023-01-18T18:54:18.320Z,98266.66
2023-01-18T18:56:53.792Z,98259.66
2023-01-18T18:59:24.749Z,98255.59
2023-01-18T19:02:00.540Z,98258.69
2023-01-18T19:04:35.542Z,98259.09
2023-01-18T19:07:13.139Z,98263.03
2023-01-18T19:09:52.973Z,98259.81
2023-01-18T19:12:22.943Z,98262.69
2023-01-18T19:14:55.264Z,98264.97
2023-01-18T19:17:35.547Z,98252.00
2023-01-18T19:20:14.057Z,98250.56
2023-01-18T19:22:52.955Z,98245.88
2023-01-18T19:25:30.840Z,98247.94
2023-01-18T19:28:11.862Z,98254.13
2023-01-18T19:31:00.911Z,98253.75
2023-01-18T19:33:42.714Z,98250.22
2023-01-18T19:36:24.936Z,98250.63
2023-01-18T19:39:00.167Z,98250.22
2023-01-18T19:41:38.336Z,98245.44
2023-01-18T19:44:13.229Z,98243.78
2023-01-18T19:46:54.124Z,98241.34
2023-01-18T19:49:35.204Z,98259.47
2023-01-18T19:52:12.819Z,98265.41
2023-01-18T19:54:50.383Z,98265.59
2023-01-18T19:57:33.239Z,98273.19
2023-01-18T20:00:19.609Z,98270.50
2023-01-18T20:02:54.811Z,98279.94
2023-01-18T20:05:32.125Z,98273.19
2023-01-18T20:08:09.689Z,98259.97
2023-01-18T20:10:50.101Z,98263.63
2023-01-18T20:13:30.158Z,98265.94
2023-01-18T20:16:05.131Z,98266.75
2023-01-18T20:18:46.470Z,98259.97
2023-01-18T20:21:25.279Z,98256.53
2023-01-18T20:24:05.864Z,98255.69
2023-01-18T20:26:47.232Z,98257.31
2023-01-18T20:29:33.895Z,98260.97
2023-01-18T20:32:16.263Z,98256.84
2023-01-18T20:34:52.088Z,98246.81
2023-01-18T20:37:51.404Z,98249.09
2023-01-18T20:40:34.839Z,98254.63
2023-01-18T20:43:16.506Z,98243.72
2023-01-18T20:46:14.752Z,98251.75
2023-01-18T20:48:53.502Z,98251.69
2023-01-18T20:51:34.397Z,98249.00
2023-01-18T20:54:12.152Z,98244.75
2023-01-18T20:56:49.812Z,98242.13
2023-01-18T20:59:33.248Z,98249.56
2023-01-18T21:02:15.824Z,98259.44
2023-01-18T21:04:54.283Z,98256.84
2023-01-18T21:07:32.764Z,98265.94
2023-01-18T21:10:11.029Z,98260.59
2023-01-18T21:12:52.245Z,98265.94
2023-01-18T21:15:32.909Z,98257.03
2023-01-18T21:18:17.209Z,98252.56
2023-01-18T21:21:13.707Z,98252.16
2023-01-18T21:24:02.195Z,98244.72
2023-01-18T21:26:58.744Z,98248.81
2023-01-18T21:29:37.042Z,98256.84
2023-01-18T21:32:25.366Z,98250.66
2023-01-18T21:35:04.345Z,98244.44
2023-01-18T21:38:06.100Z,98248.97
2023-01-18T21:40:49.821Z,98243.41
2023-01-18T21:43:46.267Z,98239.13
2023-01-18T21:46:24.857Z,98215.25
2023-01-18T21:49:43.016Z,98209.94
2023-01-18T21:52:51.447Z,98217.69
2023-01-18T21:55:40.356Z,98216.41
2023-01-18T21:58:36.258Z,98219.66
2023-01-18T22:01:22.886Z,98218.88
2023-01-18T22:04:19.225Z,98216.31
2023-01-18T22:07:00.715Z,98211.06
2023-01-18T22:10:02.880Z,98246.09
2023-01-18T22:12:45.160Z,98238.88
2023-01-18T22:15:23.231Z,98236.28
2023-01-18T22:17:59.575Z,98235.75
2023-01-18T22:20:31.027Z,98236.81
2023-01-18T22:23:17.893Z,98237.22
2023-01-18T22:26:03.017Z,98244.88
2023-01-18T22:28:38.829Z,98245.97
2023-01-18T22:31:29.910Z,98250.88
2023-01-18T22:34:09.995Z,98255.59
2023-01-18T22:36:52.560Z,98257.63
2023-01-18T22:39:36.121Z,98260.75
2023-01-18T22:42:23.235Z,98266.72
2023-01-18T22:45:07.374Z,98274.13
2023-01-18T22:47:42.953Z,98270.06
2023-01-18T22:50:22.968Z,98255.69
2023-01-18T22:53:04.446Z,98238.41
2023-01-18T22:55:43.470Z,98236.28
2023-01-18T22:58:27.407Z,98248.06
2023-01-18T23:01:16.183Z,98247.16
2023-01-18T23:04:11.541Z,98234.16
2023-01-18T23:06:52.355Z,98236.25
2023-01-18T23:09:38.700Z,98243.50
2023-01-18T23:12:19.708Z,98231.78
2023-01-18T23:15:10.106Z,98227.91
2023-01-18T23:17:45.955Z,98229.75
2023-01-18T23:20:27.599Z,98227.44
2023-01-18T23:23:05.446Z,98233.03
2023-01-18T23:25:51.010Z,98228.03
2023-01-18T23:28:48.112Z,98224.16
2023-01-18T23:31:28.780Z,98218.00
2023-01-18T23:34:08.943Z,98221.47
2023-01-18T23:36:52.772Z,98208.69
2023-01-18T23:39:50.501Z,98214.94
2023-01-18T23:42:44.433Z,98206.31
2023-01-18T23:45:38.146Z,98190.09
2023-01-18T23:48:35.056Z,98180.56
2023-01-18T23:51:29.681Z,98176.03
2023-01-18T23:54:16.981Z,98177.06
2023-01-18T23:57:04.012Z,98173.63
2023-01-18T23:59:42.042Z,98179.13
